createdAt,value
2019-02-19T00:02:12.476Z,63.23
2019-02-19T00:04:39.491Z,61.07
2019-02-19T00:07:06.358Z,63.60
2019-02-19T00:09:33.271Z,64.60
2019-02-19T00:12:00.098Z,67.27
2019-02-19T00:14:27.182Z,65.27
2019-02-19T00:16:54.130Z,63.27
2019-02-19T00:19:21.146Z,58.47
2019-02-19T00:21:48.187Z,62.87
2019-02-19T00:24:14.992Z,61.83
2019-02-19T00:26:41.812Z,58.53
2019-02-19T00:29:08.660Z,59.90
2019-02-19T00:31:35.473Z,59.67
2019-02-19T00:34:02.542Z,61.67
2019-02-19T00:36:29.494Z,61.43
2019-02-19T00:38:56.319Z,60.30
2019-02-19T00:41:23.141Z,57.57
2019-02-19T00:43:49.998Z,62.70
2019-02-19T00:46:16.827Z,56.90
2019-02-19T00:48:43.758Z,60.60
2019-02-19T00:51:10.697Z,55.77
2019-02-19T00:53:37.515Z,60.50
2019-02-19T00:56:04.310Z,57.53
2019-02-19T00:58:31.307Z,60.93
2019-02-19T01:00:58.299Z,54.10
2019-02-19T01:03:25.308Z,64.70
2019-02-19T01:05:52.406Z,56.00
2019-02-19T01:08:19.309Z,58.13
2019-02-19T01:10:46.141Z,55.87
2019-02-19T01:13:13.183Z,60.73
2019-02-19T01:15:40.003Z,64.53
2019-02-19T01:18:06.920Z,59.20
2019-02-19T01:20:33.905Z,56.23
2019-02-19T01:23:00.830Z,55.67
2019-02-19T01:25:27.618Z,56.97
2019-02-19T01:27:54.707Z,57.40
2019-02-19T01:30:21.705Z,60.07
2019-02-19T01:32:48.505Z,57.83
2019-02-19T01:35:15.364Z,61.63
2019-02-19T01:37:42.228Z,56.50
2019-02-19T01:40:09.240Z,59.60
2019-02-19T01:42:36.065Z,61.70
2019-02-19T01:45:03.311Z,56.67
2019-02-19T01:47:30.147Z,60.93
2019-02-19T01:49:56.977Z,59.97
2019-02-19T01:52:23.903Z,58.57
2019-02-19T01:54:50.711Z,65.27
2019-02-19T01:57:17.661Z,67.20
2019-02-19T01:59:44.613Z,62.80
2019-02-19T02:02:11.425Z,60.20
2019-02-19T02:04:38.411Z,63.93
2019-02-19T02:07:05.223Z,58.83
2019-02-19T02:09:32.039Z,63.67
2019-02-19T02:11:58.995Z,63.37
2019-02-19T02:14:25.808Z,59.20
2019-02-19T02:16:52.597Z,62.10
2019-02-19T02:19:19.455Z,58.37
2019-02-19T02:21:46.475Z,61.93
2019-02-19T02:24:13.291Z,58.83
2019-02-19T02:26:40.131Z,54.90
2019-02-19T02:29:06.930Z,61.97
2019-02-19T02:31:33.738Z,63.83
2019-02-19T02:34:00.714Z,54.40
2019-02-19T02:36:27.539Z,61.30
2019-02-19T02:38:54.426Z,64.07
2019-02-19T02:41:21.415Z,63.57
2019-02-19T02:43:48.271Z,58.80
2019-02-19T02:46:15.219Z,59.40
2019-02-19T02:48:42.091Z,59.87
2019-02-19T02:51:08.986Z,59.07
2019-02-19T02:53:35.786Z,59.97
2019-02-19T02:56:02.723Z,58.50
2019-02-19T02:58:29.658Z,62.20
2019-02-19T03:00:56.623Z,64.63
2019-02-19T03:03:23.562Z,61.60
2019-02-19T03:06:03.501Z,62.40
2019-02-19T03:08:30.437Z,62.83
2019-02-19T03:10:57.236Z,59.83
2019-02-19T03:13:24.059Z,63.90
2019-02-19T03:15:50.886Z,62.77
2019-02-19T03:18:17.686Z,64.03
2019-02-19T03:20:44.476Z,66.57
2019-02-19T03:23:11.471Z,62.50
2019-02-19T03:25:38.282Z,66.90
2019-02-19T03:28:05.093Z,66.47
2019-02-19T03:30:31.922Z,61.17
2019-02-19T03:32:58.739Z,65.03
2019-02-19T03:35:25.641Z,65.67
2019-02-19T03:37:52.522Z,65.57
2019-02-19T03:40:19.439Z,69.87
2019-02-19T03:42:46.318Z,72.00
2019-02-19T03:45:13.280Z,67.53
2019-02-19T03:47:41.543Z,74.40
2019-02-19T03:50:08.502Z,71.17
2019-02-19T03:52:35.599Z,73.90
2019-02-19T03:55:02.627Z,63.70
2019-02-19T03:57:29.651Z,63.67
2019-02-19T03:59:56.608Z,56.10
2019-02-19T04:02:23.540Z,66.13
2019-02-19T04:04:50.583Z,66.50
2019-02-19T04:07:17.515Z,64.47
2019-02-19T04:09:44.328Z,56.87
2019-02-19T04:12:11.231Z,62.83
2019-02-19T04:14:38.173Z,62.50
2019-02-19T04:17:05.073Z,64.43
2019-02-19T04:19:31.890Z,57.73
2019-02-19T04:21:58.742Z,62.50
2019-02-19T04:24:25.685Z,60.07
2019-02-19T04:26:52.722Z,59.30
2019-02-19T04:29:19.662Z,52.80
2019-02-19T04:31:46.585Z,58.43
2019-02-19T04:34:13.423Z,54.13
2019-02-19T04:36:40.374Z,59.27
2019-02-19T04:39:07.286Z,57.77
2019-02-19T04:41:34.119Z,56.23
2019-02-19T04:44:00.990Z,56.77
2019-02-19T04:46:31.427Z,55.67
2019-02-19T04:48:56.598Z,64.33
2019-02-19T04:51:23.547Z,54.23
2019-02-19T04:53:50.357Z,58.87
2019-02-19T04:56:17.278Z,54.33
2019-02-19T04:58:44.134Z,58.57
2019-02-19T05:01:11.034Z,55.37
2019-02-19T05:03:37.839Z,57.63
2019-02-19T05:06:04.778Z,60.97
2019-02-19T05:08:31.571Z,58.10
2019-02-19T05:10:58.480Z,58.33
2019-02-19T05:13:25.359Z,55.87
2019-02-19T05:15:52.258Z,57.27
2019-02-19T05:18:19.178Z,54.67
2019-02-19T05:20:46.024Z,61.83
2019-02-19T05:23:12.935Z,59.03
2019-02-19T05:25:39.838Z,55.07
2019-02-19T05:28:06.666Z,57.30
2019-02-19T05:30:33.470Z,58.27
2019-02-19T05:33:00.281Z,59.23
2019-02-19T05:35:27.146Z,61.63
2019-02-19T05:37:54.057Z,57.87
2019-02-19T05:40:20.977Z,59.77
2019-02-19T05:42:47.815Z,64.77
2019-02-19T05:45:14.617Z,64.43
2019-02-19T05:47:41.571Z,66.73
2019-02-19T05:50:08.630Z,71.17
2019-02-19T05:52:35.564Z,73.80
2019-02-19T05:55:03.140Z,70.93
2019-02-19T05:57:30.149Z,66.53
2019-02-19T05:59:57.049Z,72.43
2019-02-19T06:02:24.054Z,78.70
2019-02-19T06:04:50.913Z,73.17
2019-02-19T06:07:17.855Z,74.83
2019-02-19T06:09:44.848Z,75.20
2019-02-19T06:12:11.697Z,83.77
2019-02-19T06:14:38.543Z,81.47
2019-02-19T06:17:05.437Z,87.20
2019-02-19T06:19:32.261Z,80.33
2019-02-19T06:21:59.053Z,81.53
2019-02-19T06:24:25.996Z,82.10
2019-02-19T06:26:52.910Z,86.60
2019-02-19T06:29:19.739Z,94.10
2019-02-19T06:31:46.747Z,92.77
2019-02-19T06:34:14.319Z,97.47
2019-02-19T06:36:41.229Z,100.43
2019-02-19T06:39:08.260Z,108.20
2019-02-19T06:41:35.190Z,108.53
2019-02-19T06:44:02.089Z,118.17
2019-02-19T06:46:28.930Z,117.90
2019-02-19T06:48:55.890Z,128.80
2019-02-19T06:51:22.827Z,135.47
2019-02-19T06:53:49.646Z,139.20
2019-02-19T06:56:16.545Z,154.73
2019-02-19T06:58:43.490Z,159.30
2019-02-19T07:01:10.320Z,161.93
2019-02-19T07:03:47.561Z,172.40
2019-02-19T07:06:14.366Z,176.13
2019-02-19T07:08:41.283Z,184.80
2019-02-19T07:11:08.142Z,192.37
2019-02-19T07:13:35.345Z,204.07
2019-02-19T07:16:03.231Z,192.70
2019-02-19T07:18:30.418Z,214.20
2019-02-19T07:20:57.398Z,195.67
2019-02-19T07:23:24.427Z,200.67
2019-02-19T07:25:51.433Z,212.47
2019-02-19T07:28:18.478Z,200.63
2019-02-19T07:30:45.496Z,200.00
2019-02-19T07:33:12.468Z,200.43
2019-02-19T07:35:39.266Z,217.33
2019-02-19T07:38:06.179Z,215.33
2019-02-19T07:40:33.041Z,232.70
2019-02-19T07:42:59.962Z,217.07
2019-02-19T07:45:26.882Z,244.03
2019-02-19T07:47:53.947Z,226.17
2019-02-19T07:50:20.760Z,228.80
2019-02-19T07:52:47.578Z,200.70
2019-02-19T07:55:14.507Z,221.17
2019-02-19T07:57:42.956Z,213.10
2019-02-19T08:00:10.242Z,227.23
2019-02-19T08:02:37.356Z,231.57
2019-02-19T08:05:04.801Z,215.13
2019-02-19T08:07:31.619Z,201.63
2019-02-19T08:09:58.587Z,186.50
2019-02-19T08:12:26.281Z,170.40
2019-02-19T08:14:53.355Z,170.43
2019-02-19T08:17:20.248Z,190.23
2019-02-19T08:19:48.783Z,198.07
2019-02-19T08:22:15.919Z,223.67
2019-02-19T08:24:42.772Z,219.17
2019-02-19T08:27:09.584Z,210.60
2019-02-19T08:29:36.518Z,188.13
2019-02-19T08:32:03.686Z,194.93
2019-02-19T08:34:30.504Z,170.93
2019-02-19T08:36:57.359Z,141.70
2019-02-19T08:39:24.292Z,148.20
2019-02-19T08:41:51.317Z,130.80
2019-02-19T08:44:20.253Z,127.43
2019-02-19T08:46:47.111Z,120.90
2019-02-19T08:49:14.088Z,117.67
2019-02-19T08:51:41.104Z,114.13
2019-02-19T08:54:08.087Z,102.30
2019-02-19T08:56:35.042Z,88.07
2019-02-19T08:59:02.170Z,79.07
2019-02-19T09:01:29.038Z,75.43
2019-02-19T09:03:55.964Z,79.23
2019-02-19T09:06:23.003Z,70.23
2019-02-19T09:08:49.921Z,60.07
2019-02-19T09:11:16.786Z,51.83
2019-02-19T09:13:43.689Z,50.07
2019-02-19T09:16:10.655Z,46.10
2019-02-19T09:18:37.590Z,42.17
2019-02-19T09:21:04.821Z,42.43
2019-02-19T09:23:31.682Z,43.73
2019-02-19T09:25:58.525Z,40.20
2019-02-19T09:28:26.658Z,37.10
2019-02-19T09:30:53.552Z,41.30
2019-02-19T09:33:20.475Z,40.40
2019-02-19T09:35:47.526Z,46.23
2019-02-19T09:38:14.625Z,40.83
2019-02-19T09:40:41.586Z,44.30
2019-02-19T09:43:08.504Z,42.87
2019-02-19T09:45:35.517Z,38.10
2019-02-19T09:48:02.430Z,37.10
2019-02-19T09:50:29.372Z,40.17
2019-02-19T09:53:00.105Z,38.97
2019-02-19T09:55:25.282Z,35.17
2019-02-19T09:57:52.346Z,39.47
2019-02-19T10:00:19.479Z,37.13
2019-02-19T10:02:46.597Z,43.40
2019-02-19T10:05:13.528Z,35.53
2019-02-19T10:07:40.466Z,38.10
2019-02-19T10:10:09.606Z,36.87
2019-02-19T10:12:36.526Z,39.17
2019-02-19T10:15:04.227Z,35.23
2019-02-19T10:17:31.079Z,33.37
2019-02-19T10:19:57.942Z,35.43
2019-02-19T10:22:26.837Z,37.23
2019-02-19T10:24:53.646Z,32.73
2019-02-19T10:27:20.674Z,38.13
2019-02-19T10:29:47.919Z,31.27
2019-02-19T10:32:14.762Z,32.03
2019-02-19T10:34:41.682Z,37.33
2019-02-19T10:37:08.771Z,33.77
2019-02-19T10:39:35.778Z,35.50
2019-02-19T10:42:02.924Z,33.70
2019-02-19T10:44:30.541Z,34.30
2019-02-19T10:46:57.479Z,29.23
2019-02-19T10:49:24.308Z,30.97
2019-02-19T10:51:51.317Z,34.73
2019-02-19T10:54:18.141Z,28.00
2019-02-19T10:56:45.083Z,35.23
2019-02-19T10:59:11.954Z,28.50
2019-02-19T11:01:38.994Z,25.33
2019-02-19T11:04:05.904Z,31.13
2019-02-19T11:06:32.935Z,32.17
2019-02-19T11:09:00.158Z,33.13
2019-02-19T11:11:27.018Z,29.53
2019-02-19T11:13:53.886Z,32.07
2019-02-19T11:16:20.705Z,33.73
2019-02-19T11:18:47.602Z,31.80
2019-02-19T11:21:19.603Z,33.67
2019-02-19T11:23:43.349Z,31.27
2019-02-19T11:26:10.258Z,38.07
2019-02-19T11:28:37.223Z,35.83
2019-02-19T11:31:04.045Z,30.97
2019-02-19T11:33:30.860Z,40.27
2019-02-19T11:35:57.715Z,28.33
2019-02-19T11:38:24.640Z,29.77
2019-02-19T11:40:51.481Z,27.97
2019-02-19T11:43:18.338Z,33.43
2019-02-19T11:45:45.289Z,28.23
2019-02-19T11:48:12.143Z,26.97
2019-02-19T11:50:38.992Z,34.97
2019-02-19T11:53:05.929Z,29.10
2019-02-19T11:55:33.033Z,32.93
2019-02-19T11:57:59.987Z,32.13
2019-02-19T12:00:35.718Z,33.97
2019-02-19T12:03:02.766Z,30.17
2019-02-19T12:05:29.704Z,31.27
2019-02-19T12:07:56.498Z,28.90
2019-02-19T12:10:23.366Z,32.70
2019-02-19T12:12:50.398Z,31.23
2019-02-19T12:15:19.145Z,29.63
2019-02-19T12:17:46.000Z,29.07
2019-02-19T12:20:13.018Z,27.80
2019-02-19T12:22:40.038Z,28.10
2019-02-19T12:25:07.138Z,31.17
2019-02-19T12:27:34.042Z,32.30
2019-02-19T12:30:00.875Z,32.53
2019-02-19T12:32:28.932Z,28.07
2019-02-19T12:34:58.819Z,28.37
2019-02-19T12:37:25.978Z,26.37
2019-02-19T12:39:52.831Z,27.00
2019-02-19T12:42:19.674Z,27.37
2019-02-19T12:44:46.498Z,34.00
2019-02-19T12:47:13.458Z,33.50
2019-02-19T12:49:40.503Z,37.93
2019-02-19T12:52:07.421Z,31.40
2019-02-19T12:54:34.473Z,28.40
2019-02-19T12:57:01.318Z,34.87
2019-02-19T12:59:28.358Z,27.03
2019-02-19T13:01:55.248Z,38.53
2019-02-19T13:04:22.195Z,33.47
2019-02-19T13:06:49.035Z,30.80
2019-02-19T13:09:15.982Z,31.93
2019-02-19T13:11:42.909Z,33.20
2019-02-19T13:14:09.838Z,26.27
2019-02-19T13:16:36.819Z,25.87
2019-02-19T13:19:04.242Z,30.90
2019-02-19T13:21:31.290Z,24.60
2019-02-19T13:23:58.258Z,30.60
2019-02-19T13:26:25.120Z,22.80
2019-02-19T13:28:52.060Z,27.70
2019-02-19T13:31:19.182Z,26.93
2019-02-19T13:33:45.994Z,30.90
2019-02-19T13:36:12.815Z,18.87
2019-02-19T13:38:39.814Z,18.07
2019-02-19T13:41:06.721Z,21.70
2019-02-19T13:43:33.541Z,22.63
2019-02-19T13:46:00.650Z,17.73
2019-02-19T13:48:27.498Z,17.07
2019-02-19T13:50:54.341Z,15.03
2019-02-19T13:53:30.396Z,18.60
2019-02-19T13:55:58.407Z,21.77
2019-02-19T13:58:25.383Z,13.10
2019-02-19T14:00:52.456Z,17.17
2019-02-19T14:03:19.260Z,11.33
2019-02-19T14:05:46.206Z,14.07
2019-02-19T14:08:14.784Z,14.47
2019-02-19T14:10:42.082Z,16.43
2019-02-19T14:13:09.017Z,15.93
2019-02-19T14:16:04.715Z,19.77
2019-02-19T14:18:47.217Z,13.47
2019-02-19T14:21:32.367Z,15.90
2019-02-19T14:24:28.523Z,19.73
2019-02-19T14:27:27.371Z,14.70
2019-02-19T14:30:13.943Z,16.03
2019-02-19T14:33:02.467Z,16.33
2019-02-19T14:35:47.083Z,13.50
2019-02-19T14:38:27.076Z,13.80
2019-02-19T14:41:12.674Z,16.30
2019-02-19T14:44:05.086Z,18.57
2019-02-19T14:46:56.549Z,18.07
2019-02-19T14:49:47.681Z,19.03
2019-02-19T14:52:28.105Z,14.77
2019-02-19T14:55:12.401Z,14.43
2019-02-19T14:57:52.312Z,18.63
2019-02-19T15:00:37.864Z,14.90
2019-02-19T15:03:19.782Z,19.53
2019-02-19T15:06:14.900Z,19.80
2019-02-19T15:09:00.128Z,22.40
2019-02-19T15:11:38.491Z,13.73
2019-02-19T15:14:21.060Z,17.07
2019-02-19T15:17:10.433Z,9.27
2019-02-19T15:19:59.694Z,12.97
2019-02-19T15:23:04.581Z,13.77
2019-02-19T15:25:54.198Z,11.23
2019-02-19T15:28:36.404Z,9.00
2019-02-19T15:31:21.474Z,11.13
2019-02-19T15:34:02.546Z,9.63
2019-02-19T15:36:54.877Z,8.10
2019-02-19T15:39:41.618Z,9.37
2019-02-19T15:42:26.404Z,11.10
2019-02-19T15:45:18.530Z,7.50
2019-02-19T15:48:03.417Z,12.73
2019-02-19T15:50:48.869Z,11.20
2019-02-19T15:53:25.002Z,10.40
2019-02-19T15:56:17.427Z,13.40
2019-02-19T15:58:51.874Z,8.70
2019-02-19T16:01:53.606Z,9.43
2019-02-19T16:04:28.124Z,6.50
2019-02-19T16:07:02.089Z,12.20
2019-02-19T16:09:46.769Z,10.83
2019-02-19T16:12:22.117Z,7.97
2019-02-19T16:15:00.359Z,6.73
2019-02-19T16:17:45.484Z,5.00
2019-02-19T16:20:37.960Z,7.43
2019-02-19T16:23:13.855Z,10.13
2019-02-19T16:26:09.307Z,7.03
2019-02-19T16:28:54.320Z,7.23
2019-02-19T16:31:39.588Z,7.73
2019-02-19T16:34:13.413Z,8.93
2019-02-19T16:36:58.807Z,8.83
2019-02-19T16:39:44.080Z,7.03
2019-02-19T16:42:27.129Z,13.57
2019-02-19T16:45:19.716Z,8.20
2019-02-19T16:48:18.653Z,5.27
2019-02-19T16:51:20.521Z,10.23
2019-02-19T16:54:06.849Z,9.80
2019-02-19T16:56:53.017Z,9.63
2019-02-19T16:59:24.109Z,8.20
2019-02-19T17:02:00.935Z,8.80
2019-02-19T17:04:35.201Z,11.13
2019-02-19T17:07:10.491Z,10.20
2019-02-19T17:09:54.271Z,10.33
2019-02-19T17:12:30.705Z,8.37
2019-02-19T17:15:07.102Z,7.50
2019-02-19T17:17:42.084Z,8.43
2019-02-19T17:20:29.547Z,9.07
2019-02-19T17:23:22.699Z,10.40
2019-02-19T17:26:09.178Z,7.57
2019-02-19T17:28:44.566Z,7.80
2019-02-19T17:31:23.266Z,8.33
2019-02-19T17:33:58.443Z,11.00
2019-02-19T17:36:50.684Z,6.20
2019-02-19T17:39:44.059Z,6.20
2019-02-19T17:42:19.839Z,10.23
2019-02-19T17:44:52.761Z,8.07
2019-02-19T17:47:45.059Z,8.00
2019-02-19T17:50:27.176Z,10.67
2019-02-19T17:53:04.437Z,8.63
2019-02-19T17:55:51.541Z,10.80
2019-02-19T17:58:31.373Z,6.97
2019-02-19T18:01:26.819Z,11.70
2019-02-19T18:04:11.294Z,12.27
2019-02-19T18:07:09.859Z,13.93
2019-02-19T18:09:50.485Z,10.17
2019-02-19T18:12:35.077Z,11.07
2019-02-19T18:15:24.574Z,8.27
2019-02-19T18:18:01.764Z,7.83
2019-02-19T18:20:28.670Z,8.53
2019-02-19T18:22:55.554Z,9.33
2019-02-19T18:25:22.465Z,13.60
2019-02-19T18:27:49.334Z,9.47
2019-02-19T18:30:16.243Z,10.73
2019-02-19T18:32:43.114Z,8.37
2019-02-19T18:35:10.018Z,8.30
2019-02-19T18:37:36.874Z,12.40
2019-02-19T18:40:03.987Z,11.47
2019-02-19T18:42:30.955Z,10.60
2019-02-19T18:44:57.785Z,10.23
2019-02-19T18:47:24.714Z,11.30
2019-02-19T18:49:51.665Z,15.10
2019-02-19T18:52:18.582Z,6.63
2019-02-19T18:54:45.447Z,13.60
2019-02-19T18:57:12.265Z,8.00
2019-02-19T18:59:39.285Z,10.03
2019-02-19T19:02:06.246Z,12.77
2019-02-19T19:04:33.228Z,10.07
2019-02-19T19:07:00.291Z,10.10
2019-02-19T19:09:29.426Z,11.90
2019-02-19T19:11:56.376Z,10.70
2019-02-19T19:14:23.192Z,11.43
2019-02-19T19:16:50.258Z,10.03
2019-02-19T19:19:17.092Z,10.53
2019-02-19T19:21:43.983Z,13.87
2019-02-19T19:24:10.886Z,10.47
2019-02-19T19:26:37.882Z,9.73
2019-02-19T19:29:04.940Z,12.10
2019-02-19T19:31:33.890Z,9.83
2019-02-19T19:34:00.748Z,6.57
2019-02-19T19:36:27.790Z,10.40
2019-02-19T19:38:54.735Z,10.83
2019-02-19T19:41:21.559Z,7.40
2019-02-19T19:43:48.358Z,10.63
2019-02-19T19:46:15.251Z,8.27
2019-02-19T19:48:42.167Z,6.63
2019-02-19T19:51:16.995Z,9.07
2019-02-19T19:53:37.884Z,10.73
2019-02-19T19:56:04.935Z,14.40
2019-02-19T19:58:31.855Z,7.20
2019-02-19T20:00:58.808Z,9.27
2019-02-19T20:03:25.666Z,8.70
2019-02-19T20:05:52.485Z,11.43
2019-02-19T20:08:19.431Z,10.87
2019-02-19T20:10:46.588Z,9.87
2019-02-19T20:13:13.416Z,5.97
2019-02-19T20:15:40.474Z,8.70
2019-02-19T20:18:07.323Z,7.63
2019-02-19T20:20:34.267Z,8.97
2019-02-19T20:23:01.376Z,6.43
2019-02-19T20:25:28.383Z,10.40
2019-02-19T20:27:55.316Z,12.23
2019-02-19T20:30:22.266Z,10.40
2019-02-19T20:32:49.105Z,7.90
2019-02-19T20:35:15.924Z,9.27
2019-02-19T20:37:42.753Z,10.03
2019-02-19T20:40:10.099Z,10.57
2019-02-19T20:42:37.022Z,10.40
2019-02-19T20:45:04.435Z,8.00
2019-02-19T20:47:31.345Z,15.63
2019-02-19T20:49:58.197Z,10.03
2019-02-19T20:52:25.092Z,13.77
2019-02-19T20:54:51.922Z,8.63
2019-02-19T20:57:18.963Z,14.70
2019-02-19T20:59:46.026Z,10.27
2019-02-19T21:02:12.950Z,4.63
2019-02-19T21:04:39.891Z,10.27
2019-02-19T21:07:06.863Z,9.90
2019-02-19T21:09:43.143Z,7.50
2019-02-19T21:12:02.670Z,8.07
2019-02-19T21:14:29.664Z,7.17
2019-02-19T21:16:56.691Z,7.70
2019-02-19T21:19:23.584Z,8.87
2019-02-19T21:21:50.681Z,9.00
2019-02-19T21:24:17.515Z,9.53
2019-02-19T21:26:44.329Z,7.37
2019-02-19T21:29:11.178Z,10.87
2019-02-19T21:31:38.017Z,10.13
2019-02-19T21:34:05.055Z,8.10
2019-02-19T21:36:31.920Z,10.80
2019-02-19T21:38:58.977Z,10.33
2019-02-19T21:41:25.805Z,7.97
2019-02-19T21:43:52.791Z,7.30
2019-02-19T21:46:19.710Z,8.43
2019-02-19T21:48:48.229Z,7.07
2019-02-19T21:51:15.635Z,14.17
2019-02-19T21:53:42.566Z,9.60
2019-02-19T21:56:09.373Z,6.33
2019-02-19T21:58:36.242Z,8.93
2019-02-19T22:01:03.281Z,5.73
2019-02-19T22:03:30.206Z,10.67
2019-02-19T22:05:57.078Z,9.17
2019-02-19T22:08:23.986Z,6.03
2019-02-19T22:10:50.913Z,9.03
2019-02-19T22:13:17.820Z,7.13
2019-02-19T22:15:44.737Z,6.53
2019-02-19T22:18:11.551Z,8.20
2019-02-19T22:21:00.988Z,8.90
2019-02-19T22:23:27.938Z,6.20
2019-02-19T22:25:55.070Z,10.87
2019-02-19T22:28:22.933Z,16.40
2019-02-19T22:30:49.939Z,12.03
2019-02-19T22:33:16.762Z,8.70
2019-02-19T22:35:43.719Z,7.70
2019-02-19T22:38:10.538Z,9.13
2019-02-19T22:40:37.785Z,12.17
2019-02-19T22:43:04.833Z,7.83
2019-02-19T22:45:31.649Z,10.87
2019-02-19T22:47:58.469Z,10.73
2019-02-19T22:50:25.541Z,9.33
2019-02-19T22:52:52.465Z,9.43
2019-02-19T22:55:31.012Z,12.10
2019-02-19T22:57:57.839Z,9.33
2019-02-19T23:00:45.487Z,8.80
2019-02-19T23:03:12.621Z,10.93
2019-02-19T23:05:39.726Z,14.03
2019-02-19T23:08:06.710Z,9.47
2019-02-19T23:10:33.523Z,9.43
2019-02-19T23:13:00.468Z,14.03
2019-02-19T23:15:27.319Z,7.07
2019-02-19T23:17:54.421Z,11.43
2019-02-19T23:20:21.255Z,13.10
2019-02-19T23:22:48.230Z,12.20
2019-02-19T23:25:15.071Z,11.80
2019-02-19T23:27:41.900Z,10.77
2019-02-19T23:30:08.863Z,10.80
2019-02-19T23:32:35.798Z,18.03
2019-02-19T23:35:35.818Z,10.23
2019-02-19T23:38:02.961Z,6.60
2019-02-19T23:40:30.266Z,8.20
2019-02-19T23:42:57.351Z,14.47
2019-02-19T23:45:24.481Z,10.40
2019-02-19T23:47:51.302Z,8.67
2019-02-19T23:50:18.548Z,5.27
2019-02-19T23:52:45.621Z,10.67
2019-02-19T23:55:12.546Z,12.13
2019-02-19T23:57:39.405Z,7.57
